createdAt,value
2018-06-22T00:01:19.388Z,100.00
2018-06-22T00:03:46.482Z,100.00
2018-06-22T00:06:13.557Z,100.00
2018-06-22T00:08:40.573Z,100.00
2018-06-22T00:11:07.549Z,100.00
2018-06-22T00:13:34.637Z,100.00
2018-06-22T00:16:01.653Z,100.00
2018-06-22T00:18:29.657Z,100.00
2018-06-22T00:20:56.663Z,100.00
2018-06-22T00:23:23.667Z,100.00
2018-06-22T00:25:50.646Z,100.00
2018-06-22T00:28:17.674Z,100.00
2018-06-22T00:30:44.715Z,100.00
2018-06-22T00:33:11.726Z,100.00
2018-06-22T00:35:38.705Z,100.00
2018-06-22T00:38:05.713Z,100.00
2018-06-22T00:40:32.749Z,100.00
2018-06-22T00:43:00.792Z,100.00
2018-06-22T00:45:27.805Z,100.00
2018-06-22T00:47:54.822Z,100.00
2018-06-22T00:50:21.833Z,100.00
2018-06-22T00:52:48.838Z,100.00
2018-06-22T00:55:15.821Z,100.00
2018-06-22T00:57:43.086Z,100.00
2018-06-22T01:00:10.105Z,100.00
2018-06-22T01:02:37.133Z,100.00
2018-06-22T01:05:04.157Z,100.00
2018-06-22T01:07:31.160Z,100.00
2018-06-22T01:09:58.146Z,100.00
2018-06-22T01:12:25.383Z,100.00
2018-06-22T01:14:52.381Z,100.00
2018-06-22T01:17:19.410Z,100.00
2018-06-22T01:19:46.405Z,100.00
2018-06-22T01:22:13.432Z,100.00
2018-06-22T01:24:40.470Z,100.00
2018-06-22T01:27:07.613Z,100.00
2018-06-22T01:29:34.628Z,100.00
2018-06-22T01:32:02.379Z,100.00
2018-06-22T01:34:29.415Z,100.00
2018-06-22T01:36:56.430Z,100.00
2018-06-22T01:39:23.529Z,100.00
2018-06-22T01:41:50.768Z,100.00
2018-06-22T01:44:17.798Z,100.00
2018-06-22T01:46:44.856Z,100.00
2018-06-22T01:49:11.866Z,100.00
2018-06-22T01:51:38.906Z,100.00
2018-06-22T01:54:05.982Z,100.00
2018-06-22T01:56:33.000Z,100.00
2018-06-22T01:59:00.160Z,100.00
2018-06-22T02:01:27.238Z,100.00
2018-06-22T02:03:54.275Z,100.00
2018-06-22T02:06:21.332Z,100.00
2018-06-22T02:08:48.402Z,100.00
2018-06-22T02:11:15.501Z,100.00
2018-06-22T02:13:42.528Z,100.00
2018-06-22T02:16:09.583Z,100.00
2018-06-22T02:18:36.629Z,100.00
2018-06-22T02:21:03.738Z,100.00
2018-06-22T02:23:30.772Z,100.00
2018-06-22T02:25:57.826Z,100.00
2018-06-22T02:28:24.974Z,100.00
2018-06-22T02:30:52.046Z,100.00
2018-06-22T02:33:20.115Z,100.00
2018-06-22T02:35:47.205Z,100.00
2018-06-22T02:38:14.282Z,100.00
2018-06-22T02:40:41.380Z,100.00
2018-06-22T02:43:08.913Z,100.00
2018-06-22T02:45:36.047Z,100.00
2018-06-22T02:48:04.066Z,100.00
2018-06-22T02:50:31.171Z,100.00
2018-06-22T02:52:58.355Z,100.00
2018-06-22T02:55:25.461Z,100.00
2018-06-22T02:57:52.524Z,100.00
2018-06-22T03:00:19.672Z,100.00
2018-06-22T03:02:47.335Z,100.00
2018-06-22T03:05:14.373Z,100.00
2018-06-22T03:07:41.481Z,100.00
2018-06-22T03:10:08.533Z,100.00
2018-06-22T03:12:35.629Z,100.00
2018-06-22T03:15:03.319Z,100.00
2018-06-22T03:17:30.504Z,100.00
2018-06-22T03:19:58.099Z,100.00
2018-06-22T03:22:25.254Z,100.00
2018-06-22T03:24:52.393Z,100.00
2018-06-22T03:27:19.525Z,100.00
2018-06-22T03:29:46.694Z,100.00
2018-06-22T03:32:13.925Z,100.00
2018-06-22T03:34:40.982Z,100.00
2018-06-22T03:37:08.147Z,100.00
2018-06-22T03:39:35.406Z,100.00
2018-06-22T03:42:03.126Z,100.00
2018-06-22T03:44:30.243Z,100.00
2018-06-22T03:46:57.364Z,100.00
2018-06-22T03:49:31.394Z,100.00
2018-06-22T03:51:58.601Z,100.00
2018-06-22T03:54:25.866Z,100.00
2018-06-22T03:56:53.017Z,100.00
2018-06-22T03:59:20.257Z,100.00
2018-06-22T04:01:47.385Z,100.00
2018-06-22T04:04:14.615Z,100.00
2018-06-22T04:06:41.891Z,100.00
2018-06-22T04:09:09.014Z,100.00
2018-06-22T04:11:36.418Z,100.00
2018-06-22T04:14:03.537Z,100.00
2018-06-22T04:16:30.658Z,100.00
2018-06-22T04:18:57.832Z,100.00
2018-06-22T04:21:24.910Z,100.00
2018-06-22T04:23:52.035Z,100.00
2018-06-22T04:26:19.234Z,100.00
2018-06-22T04:28:46.335Z,100.00
2018-06-22T04:31:13.430Z,100.00
2018-06-22T04:33:40.549Z,100.00
2018-06-22T04:36:07.672Z,100.00
2018-06-22T04:38:34.876Z,100.00
2018-06-22T04:41:02.398Z,100.00
2018-06-22T04:43:29.508Z,100.00
2018-06-22T04:45:56.704Z,100.00
2018-06-22T04:48:24.118Z,100.00
2018-06-22T04:50:51.275Z,100.00
2018-06-22T04:53:18.505Z,100.00
2018-06-22T04:55:45.573Z,100.00
2018-06-22T04:58:12.700Z,100.00
2018-06-22T05:00:39.778Z,100.00
2018-06-22T05:03:06.962Z,100.00
2018-06-22T05:05:34.133Z,100.00
2018-06-22T05:08:01.288Z,100.00
2018-06-22T05:10:28.440Z,100.00
2018-06-22T05:12:55.611Z,100.00
2018-06-22T05:15:22.831Z,100.00
2018-06-22T05:17:50.000Z,100.00
2018-06-22T05:20:17.199Z,100.00
2018-06-22T05:22:44.403Z,100.00
2018-06-22T05:25:11.596Z,100.00
2018-06-22T05:27:38.777Z,100.00
2018-06-22T05:30:06.009Z,100.00
2018-06-22T05:32:33.455Z,100.00
2018-06-22T05:35:00.693Z,100.00
2018-06-22T05:37:27.909Z,100.00
2018-06-22T05:39:55.012Z,100.00
2018-06-22T05:42:22.660Z,100.00
2018-06-22T05:44:49.858Z,100.00
2018-06-22T05:47:17.067Z,100.00
2018-06-22T05:49:44.173Z,100.00
2018-06-22T05:52:11.663Z,100.00
2018-06-22T05:54:38.779Z,100.00
2018-06-22T05:57:05.852Z,100.00
2018-06-22T05:59:32.872Z,100.00
2018-06-22T06:01:59.926Z,100.00
2018-06-22T06:04:26.956Z,100.00
2018-06-22T06:06:54.018Z,100.00
2018-06-22T06:09:21.047Z,100.00
2018-06-22T06:11:48.143Z,100.00
2018-06-22T06:14:15.171Z,100.00
2018-06-22T06:16:42.451Z,100.00
2018-06-22T06:19:09.845Z,100.00
2018-06-22T06:21:37.278Z,100.00
2018-06-22T06:24:04.322Z,100.00
2018-06-22T06:26:31.382Z,100.00
2018-06-22T06:28:59.481Z,100.00
2018-06-22T06:31:26.980Z,100.00
2018-06-22T06:33:54.389Z,100.00
2018-06-22T06:36:21.576Z,100.00
2018-06-22T06:38:48.708Z,100.00
2018-06-22T06:41:15.943Z,100.00
2018-06-22T06:43:43.152Z,100.00
2018-06-22T06:46:10.777Z,100.00
2018-06-22T06:48:37.877Z,100.00
2018-06-22T06:51:05.587Z,100.00
2018-06-22T06:53:32.620Z,100.00
2018-06-22T06:55:59.710Z,100.00
2018-06-22T06:58:26.734Z,100.00
2018-06-22T07:00:53.753Z,100.00
2018-06-22T07:03:24.474Z,100.00
2018-06-22T07:05:51.632Z,100.00
2018-06-22T07:08:18.668Z,100.00
2018-06-22T07:10:46.137Z,100.00
2018-06-22T07:13:13.288Z,100.00
2018-06-22T07:15:41.110Z,100.00
2018-06-22T07:18:08.966Z,100.00
2018-06-22T07:20:36.345Z,100.00
2018-06-22T07:23:03.429Z,100.00
2018-06-22T07:25:30.510Z,100.00
2018-06-22T07:27:57.652Z,100.00
2018-06-22T07:30:24.872Z,100.00
2018-06-22T07:32:52.068Z,100.00
2018-06-22T07:35:19.287Z,100.00
2018-06-22T07:37:46.330Z,100.00
2018-06-22T07:40:13.481Z,100.00
2018-06-22T07:42:40.489Z,100.00
2018-06-22T07:45:08.011Z,100.00
2018-06-22T07:47:35.378Z,100.00
2018-06-22T07:50:02.423Z,100.00
2018-06-22T07:52:29.430Z,100.00
2018-06-22T07:54:56.453Z,100.00
2018-06-22T07:57:23.473Z,100.00
2018-06-22T07:59:50.630Z,100.00
2018-06-22T08:02:17.657Z,100.00
2018-06-22T08:04:44.709Z,100.00
2018-06-22T08:07:11.707Z,100.00
2018-06-22T08:09:38.766Z,100.00
2018-06-22T08:12:06.245Z,100.00
2018-06-22T08:14:33.313Z,100.00
2018-06-22T08:17:00.349Z,100.00
2018-06-22T08:19:27.408Z,100.00
2018-06-22T08:21:54.504Z,100.00
2018-06-22T08:24:21.513Z,100.00
2018-06-22T08:26:48.557Z,100.00
2018-06-22T08:29:15.561Z,100.00
2018-06-22T08:31:42.626Z,100.00
2018-06-22T08:34:09.673Z,100.00
2018-06-22T08:36:36.700Z,100.00
2018-06-22T08:39:06.330Z,100.00
2018-06-22T08:41:33.559Z,100.00
2018-06-22T08:44:00.737Z,100.00
2018-06-22T08:46:27.806Z,100.00
2018-06-22T08:48:55.166Z,100.00
2018-06-22T08:51:22.195Z,100.00
2018-06-22T08:53:49.226Z,100.00
2018-06-22T08:56:16.505Z,100.00
2018-06-22T08:58:43.508Z,100.00
2018-06-22T09:01:10.807Z,100.00
2018-06-22T09:03:38.502Z,100.00
2018-06-22T09:06:05.693Z,100.00
2018-06-22T09:08:32.809Z,100.00
2018-06-22T09:11:01.595Z,100.00
2018-06-22T09:13:29.037Z,100.00
2018-06-22T09:15:56.130Z,100.00
2018-06-22T09:18:23.441Z,96.47
2018-06-22T09:20:50.742Z,99.05
2018-06-22T09:23:18.139Z,96.26
2018-06-22T09:25:45.192Z,96.28
2018-06-22T09:28:12.256Z,100.00
2018-06-22T09:30:39.532Z,99.51
2018-06-22T09:33:06.549Z,99.05
2018-06-22T09:35:33.790Z,97.65
2018-06-22T09:38:00.850Z,91.89
2018-06-22T09:40:28.075Z,93.93
2018-06-22T09:42:55.168Z,93.68
2018-06-22T09:45:22.383Z,93.23
2018-06-22T09:47:49.877Z,90.74
2018-06-22T09:50:16.990Z,89.33
2018-06-22T09:52:44.237Z,91.24
2018-06-22T09:55:11.537Z,88.36
2018-06-22T09:57:38.794Z,87.16
2018-06-22T10:00:05.873Z,89.68
2018-06-22T10:02:32.905Z,92.09
2018-06-22T10:05:00.025Z,90.49
2018-06-22T10:07:27.070Z,83.03
2018-06-22T10:09:54.081Z,91.29
2018-06-22T10:12:21.253Z,82.40
2018-06-22T10:14:48.357Z,82.20
2018-06-22T10:17:15.442Z,84.32
2018-06-22T10:19:42.558Z,81.87
2018-06-22T10:22:09.763Z,83.84
2018-06-22T10:24:36.779Z,83.78
2018-06-22T10:27:04.610Z,78.50
2018-06-22T10:29:31.590Z,83.11
2018-06-22T10:31:58.622Z,79.74
2018-06-22T10:34:25.662Z,80.35
2018-06-22T10:36:53.065Z,76.88
2018-06-22T10:39:20.222Z,79.10
2018-06-22T10:41:47.461Z,83.80
2018-06-22T10:44:14.821Z,79.92
2018-06-22T10:46:41.943Z,81.44
2018-06-22T10:49:09.358Z,81.75
2018-06-22T10:51:36.461Z,80.74
2018-06-22T10:54:03.570Z,77.53
2018-06-22T10:56:30.810Z,78.45
2018-06-22T10:58:57.829Z,80.34
2018-06-22T11:01:24.884Z,75.80
2018-06-22T11:03:52.026Z,73.95
2018-06-22T11:06:19.082Z,75.08
2018-06-22T11:08:46.469Z,78.93
2018-06-22T11:11:13.517Z,72.37
2018-06-22T11:13:40.535Z,80.68
2018-06-22T11:16:07.573Z,75.02
2018-06-22T11:18:34.589Z,75.34
2018-06-22T11:21:01.639Z,70.68
2018-06-22T11:23:28.669Z,75.51
2018-06-22T11:25:55.745Z,71.33
2018-06-22T11:28:22.802Z,70.54
2018-06-22T11:30:49.877Z,69.86
2018-06-22T11:33:17.023Z,69.95
2018-06-22T11:35:44.132Z,68.58
2018-06-22T11:38:11.143Z,66.06
2018-06-22T11:40:38.213Z,65.44
2018-06-22T11:45:39.095Z,61.25
2018-06-22T11:48:06.192Z,62.34
2018-06-22T11:50:33.277Z,61.24
2018-06-22T11:53:00.359Z,65.33
2018-06-22T11:55:27.489Z,64.64
2018-06-22T11:57:54.521Z,62.76
2018-06-22T12:00:21.583Z,63.29
2018-06-22T12:02:48.758Z,62.13
2018-06-22T12:05:15.805Z,63.73
2018-06-22T12:07:42.833Z,59.30
2018-06-22T12:10:09.868Z,60.39
2018-06-22T12:12:36.962Z,58.06
2018-06-22T12:15:04.102Z,59.98
2018-06-22T12:17:31.130Z,59.06
2018-06-22T12:19:58.429Z,58.02
2018-06-22T12:22:25.501Z,60.24
2018-06-22T12:24:52.549Z,57.85
2018-06-22T12:27:19.613Z,61.42
2018-06-22T12:29:46.641Z,59.16
2018-06-22T12:32:13.677Z,64.69
2018-06-22T12:34:40.718Z,62.55
2018-06-22T12:37:07.749Z,62.45
2018-06-22T12:39:34.783Z,65.63
2018-06-22T12:42:01.822Z,62.07
2018-06-22T12:44:28.864Z,62.96
2018-06-22T12:46:56.080Z,62.89
2018-06-22T12:49:23.242Z,62.80
2018-06-22T12:51:50.347Z,63.38
2018-06-22T12:54:17.369Z,61.50
2018-06-22T12:56:44.392Z,62.23
2018-06-22T12:59:11.418Z,65.96
2018-06-22T13:01:38.464Z,66.11
2018-06-22T13:04:05.670Z,65.38
2018-06-22T13:06:32.654Z,64.16
2018-06-22T13:08:59.700Z,60.36
2018-06-22T13:11:26.720Z,62.71
2018-06-22T13:13:53.851Z,63.96
2018-06-22T13:16:20.954Z,63.15
2018-06-22T13:18:47.995Z,59.23
2018-06-22T13:21:15.033Z,59.54
2018-06-22T13:23:42.131Z,59.79
2018-06-22T13:26:09.206Z,60.78
2018-06-22T13:28:36.271Z,59.25
2018-06-22T13:31:03.353Z,60.20
2018-06-22T13:33:30.385Z,62.05
2018-06-22T13:35:57.454Z,64.13
2018-06-22T13:38:24.483Z,58.37
2018-06-22T13:40:51.690Z,57.48
2018-06-22T13:43:20.495Z,59.03
2018-06-22T13:45:48.352Z,60.70
2018-06-22T13:48:16.317Z,59.50
2018-06-22T13:50:44.232Z,61.46
2018-06-22T13:53:12.019Z,60.53
2018-06-22T13:55:40.079Z,62.22
2018-06-22T13:58:07.852Z,60.31
2018-06-22T14:00:36.758Z,58.38
2018-06-22T14:03:04.687Z,60.02
2018-06-22T14:05:37.914Z,57.00
2018-06-22T14:08:05.061Z,57.32
2018-06-22T14:10:32.162Z,61.99
2018-06-22T14:12:59.253Z,61.82
2018-06-22T14:15:26.323Z,61.49
2018-06-22T14:17:53.385Z,61.94
2018-06-22T14:20:20.433Z,61.39
2018-06-22T14:22:47.480Z,59.97
2018-06-22T14:25:14.518Z,61.18
2018-06-22T14:27:41.544Z,56.20
2018-06-22T14:30:08.665Z,57.47
2018-06-22T14:32:35.691Z,54.25
2018-06-22T14:35:03.279Z,54.44
2018-06-22T14:37:30.413Z,58.20
2018-06-22T14:39:57.935Z,54.57
2018-06-22T14:42:25.544Z,55.22
2018-06-22T14:44:53.716Z,53.16
2018-06-22T14:47:21.178Z,50.31
2018-06-22T14:49:48.292Z,54.48
2018-06-22T14:52:15.781Z,48.75
2018-06-22T14:54:49.014Z,48.53
2018-06-22T14:57:22.117Z,49.59
2018-06-22T14:59:55.133Z,54.46
2018-06-22T15:03:25.579Z,51.92
2018-06-22T15:05:58.619Z,56.93
2018-06-22T15:08:25.689Z,57.63
2018-06-22T15:10:52.752Z,59.17
2018-06-22T15:13:20.462Z,62.33
2018-06-22T15:15:47.529Z,62.72
2018-06-22T15:18:14.589Z,64.22
2018-06-22T15:20:41.616Z,64.02
2018-06-22T15:23:08.649Z,63.42
2018-06-22T15:25:35.735Z,63.24
2018-06-22T15:28:03.904Z,61.68
2018-06-22T15:30:30.929Z,62.20
2018-06-22T15:32:57.998Z,60.03
2018-06-22T15:35:30.781Z,59.56
2018-06-22T15:38:03.550Z,58.16
2018-06-22T15:40:36.266Z,59.78
2018-06-22T15:43:09.136Z,60.52
2018-06-22T15:45:42.341Z,61.01
2018-06-22T15:48:15.179Z,61.07
2018-06-22T15:50:48.090Z,62.69
2018-06-22T15:53:21.486Z,64.78
2018-06-22T15:55:49.253Z,66.01
2018-06-22T15:58:16.281Z,67.79
2018-06-22T16:00:43.303Z,68.55
2018-06-22T16:03:16.210Z,68.96
2018-06-22T16:05:43.256Z,70.03
2018-06-22T16:08:10.318Z,71.21
2018-06-22T16:10:37.402Z,70.04
2018-06-22T16:13:09.033Z,67.21
2018-06-22T16:15:41.950Z,69.38
2018-06-22T16:18:14.599Z,70.51
2018-06-22T16:20:47.474Z,69.15
2018-06-22T16:23:20.213Z,70.39
2018-06-22T16:25:52.807Z,70.95
2018-06-22T16:28:19.845Z,71.70
2018-06-22T16:30:46.900Z,72.46
2018-06-22T16:33:13.953Z,73.36
2018-06-22T16:35:41.013Z,73.64
2018-06-22T16:38:08.263Z,75.38
2018-06-22T16:40:35.313Z,74.69
2018-06-22T16:43:02.423Z,75.47
2018-06-22T16:45:30.230Z,76.56
2018-06-22T16:47:57.327Z,76.78
2018-06-22T16:50:24.436Z,77.12
2018-06-22T16:52:51.493Z,77.58
2018-06-22T16:55:19.192Z,78.28
2018-06-22T16:57:46.329Z,78.62
2018-06-22T17:00:13.467Z,78.94
2018-06-22T17:02:40.577Z,80.16
2018-06-22T17:05:08.166Z,80.87
2018-06-22T17:07:41.139Z,81.38
2018-06-22T17:10:13.876Z,80.42
2018-06-22T17:12:46.661Z,79.85
2018-06-22T17:15:19.506Z,79.94
2018-06-22T17:17:52.360Z,81.01
2018-06-22T17:20:19.424Z,82.66
2018-06-22T17:22:46.506Z,80.21
2018-06-22T17:25:13.945Z,79.89
2018-06-22T17:27:40.997Z,80.96
2018-06-22T17:30:08.097Z,80.47
2018-06-22T17:32:35.128Z,80.83
2018-06-22T17:35:02.277Z,81.07
2018-06-22T17:37:29.374Z,80.28
2018-06-22T17:39:56.372Z,80.86
2018-06-22T17:42:23.472Z,80.98
2018-06-22T17:44:50.497Z,80.89
2018-06-22T17:47:17.599Z,81.66
2018-06-22T17:49:44.680Z,80.87
2018-06-22T17:52:11.777Z,81.00
2018-06-22T17:54:38.825Z,81.35
2018-06-22T17:57:05.962Z,82.29
2018-06-22T17:59:38.695Z,89.39
2018-06-22T18:02:12.309Z,92.54
2018-06-22T18:04:43.678Z,92.88
2018-06-22T18:07:16.819Z,94.30
2018-06-22T18:09:49.550Z,93.90
2018-06-22T18:12:22.378Z,91.06
2018-06-22T18:14:49.557Z,92.96
2018-06-22T18:17:16.834Z,94.20
2018-06-22T18:19:43.857Z,97.48
2018-06-22T18:22:10.952Z,97.51
2018-06-22T18:24:38.029Z,98.34
2018-06-22T18:27:05.122Z,98.33
2018-06-22T18:29:32.165Z,98.34
2018-06-22T18:31:59.265Z,98.75
2018-06-22T18:34:26.549Z,99.52
2018-06-22T18:36:54.218Z,98.58
2018-06-22T18:39:21.329Z,98.65
2018-06-22T18:41:48.389Z,96.77
2018-06-22T18:44:16.605Z,96.94
2018-06-22T18:46:44.077Z,96.32
2018-06-22T18:49:11.505Z,97.28
2018-06-22T18:51:38.585Z,96.24
2018-06-22T18:54:11.321Z,95.77
2018-06-22T18:56:44.725Z,96.77
2018-06-22T18:59:17.398Z,95.79
2018-06-22T19:01:50.283Z,94.60
2018-06-22T19:04:17.370Z,95.42
2018-06-22T19:06:44.430Z,96.27
2018-06-22T19:09:11.494Z,96.32
2018-06-22T19:11:38.576Z,94.54
2018-06-22T19:14:05.581Z,93.73
2018-06-22T19:16:32.681Z,94.64
2018-06-22T19:18:59.686Z,94.08
2018-06-22T19:21:26.709Z,91.70
2018-06-22T19:23:53.729Z,93.55
2018-06-22T19:26:20.878Z,92.73
2018-06-22T19:28:47.931Z,91.98
2018-06-22T19:31:15.018Z,92.73
2018-06-22T19:33:42.043Z,94.56
2018-06-22T19:36:09.196Z,95.65
2018-06-22T19:38:36.287Z,95.23
2018-06-22T19:41:03.623Z,95.72
2018-06-22T19:43:36.545Z,95.22
2018-06-22T19:46:09.497Z,96.06
2018-06-22T19:48:42.090Z,96.52
2018-06-22T19:51:14.913Z,96.62
2018-06-22T19:53:45.978Z,96.61
2018-06-22T19:56:12.990Z,95.55
2018-06-22T19:58:40.231Z,96.63
2018-06-22T20:01:07.591Z,98.06
2018-06-22T20:03:34.609Z,98.09
2018-06-22T20:06:01.663Z,98.82
2018-06-22T20:08:28.700Z,100.00
2018-06-22T20:13:30.129Z,100.00
2018-06-22T20:15:57.462Z,100.00
2018-06-22T20:18:24.702Z,100.00
2018-06-22T20:20:51.758Z,100.00
2018-06-22T20:23:18.959Z,100.00
2018-06-22T20:25:46.737Z,100.00
2018-06-22T20:28:14.520Z,100.00
2018-06-22T20:30:41.765Z,100.00
2018-06-22T20:33:08.989Z,100.00
2018-06-22T20:35:42.069Z,99.62
2018-06-22T20:38:14.831Z,99.58
2018-06-22T20:40:47.630Z,99.55
2018-06-22T20:43:20.776Z,99.15
2018-06-22T20:45:54.890Z,100.00
2018-06-22T20:48:27.502Z,99.99
2018-06-22T20:50:54.702Z,100.00
2018-06-22T20:53:21.733Z,99.03
2018-06-22T20:55:49.072Z,97.80
2018-06-22T20:58:16.082Z,98.23
2018-06-22T21:00:43.249Z,97.53
2018-06-22T21:03:10.332Z,98.38
2018-06-22T21:05:37.401Z,97.75
2018-06-22T21:08:05.108Z,99.03
2018-06-22T21:10:32.169Z,98.90
2018-06-22T21:12:59.412Z,98.60
2018-06-22T21:15:26.392Z,97.65
2018-06-22T21:17:53.459Z,97.92
2018-06-22T21:20:20.490Z,97.71
2018-06-22T21:22:47.573Z,96.98
2018-06-22T21:25:14.762Z,97.89
2018-06-22T21:27:47.590Z,96.41
2018-06-22T21:30:20.550Z,96.48
2018-06-22T21:32:53.432Z,96.48
2018-06-22T21:35:26.128Z,96.50
2018-06-22T21:37:58.931Z,96.26
2018-06-22T21:40:25.964Z,93.26
2018-06-22T21:42:52.967Z,94.63
2018-06-22T21:45:20.001Z,95.03
2018-06-22T21:47:47.008Z,94.12
2018-06-22T21:50:14.007Z,94.42
2018-06-22T21:52:41.054Z,94.17
2018-06-22T21:55:08.149Z,93.35
2018-06-22T21:57:35.164Z,91.86
2018-06-22T22:00:02.593Z,92.73
2018-06-22T22:02:29.769Z,90.67
2018-06-22T22:04:56.779Z,90.85
2018-06-22T22:07:23.910Z,90.34
2018-06-22T22:09:50.969Z,90.07
2018-06-22T22:12:18.171Z,89.48
2018-06-22T22:14:45.093Z,89.75
2018-06-22T22:17:12.111Z,89.31
2018-06-22T22:19:39.151Z,89.36
2018-06-22T22:22:06.604Z,89.56
2018-06-22T22:24:33.633Z,88.97
2018-06-22T22:27:00.666Z,88.08
2018-06-22T22:29:27.801Z,87.74
2018-06-22T22:31:54.888Z,87.38
2018-06-22T22:34:21.950Z,86.90
2018-06-22T22:36:48.986Z,87.08
2018-06-22T22:39:16.044Z,86.37
2018-06-22T22:41:43.063Z,86.42
2018-06-22T22:44:10.337Z,86.83
2018-06-22T22:46:37.842Z,86.06
2018-06-22T22:49:04.943Z,86.41
2018-06-22T22:51:32.018Z,85.41
2018-06-22T22:53:59.057Z,85.96
2018-06-22T22:56:26.098Z,86.48
2018-06-22T22:58:53.272Z,87.08
2018-06-22T23:01:20.318Z,86.53
2018-06-22T23:03:47.332Z,85.86
2018-06-22T23:06:14.436Z,86.52
2018-06-22T23:08:41.461Z,86.58
2018-06-22T23:11:08.514Z,84.76
2018-06-22T23:13:35.541Z,84.34
2018-06-22T23:16:02.570Z,84.96
2018-06-22T23:18:29.620Z,85.50
2018-06-22T23:20:56.647Z,85.47
2018-06-22T23:23:36.790Z,86.26
2018-06-22T23:26:04.335Z,85.26
2018-06-22T23:28:31.394Z,85.44
2018-06-22T23:30:59.810Z,86.78
2018-06-22T23:33:27.309Z,85.71
2018-06-22T23:35:54.328Z,85.67
2018-06-22T23:38:21.373Z,86.23
2018-06-22T23:40:48.422Z,86.88
2018-06-22T23:43:15.548Z,85.06
2018-06-22T23:45:42.649Z,86.01
2018-06-22T23:48:10.530Z,86.24
2018-06-22T23:50:37.628Z,86.02
2018-06-22T23:53:04.789Z,86.65
2018-06-22T23:55:32.617Z,86.30
2018-06-22T23:58:00.028Z,86.86
